createdAt,value
2023-04-20T00:00:30.910Z,100514.03
2023-04-20T00:05:32.423Z,100514.19
2023-04-20T00:10:34.201Z,100503.09
2023-04-20T00:15:35.760Z,100493.03
2023-04-20T00:20:37.423Z,100488.50
2023-04-20T00:25:38.757Z,100484.66
2023-04-20T00:30:40.100Z,100470.88
2023-04-20T00:35:41.470Z,100473.16
2023-04-20T00:40:44.170Z,100468.94
2023-04-20T00:45:48.890Z,100466.91
2023-04-20T00:50:50.989Z,100465.34
2023-04-20T00:55:52.787Z,100463.44
2023-04-20T01:00:54.217Z,100454.88
2023-04-20T01:05:55.693Z,100446.50
2023-04-20T01:10:57.714Z,100436.53
2023-04-20T01:16:00.470Z,100426.78
2023-04-20T01:21:01.917Z,100423.72
2023-04-20T01:26:08.129Z,100413.84
2023-04-20T01:31:11.272Z,100416.63
2023-04-20T01:36:12.976Z,100407.09
2023-04-20T01:41:14.430Z,100410.81
2023-04-20T01:46:15.844Z,100408.19
2023-04-20T01:51:17.200Z,100403.47
2023-04-20T01:56:18.552Z,100397.44
2023-04-20T02:01:20.125Z,100396.94
2023-04-20T02:06:21.754Z,100396.16
2023-04-20T02:11:23.125Z,100392.34
2023-04-20T02:16:24.705Z,100384.03
2023-04-20T02:21:26.177Z,100391.59
2023-04-20T02:26:27.537Z,100386.91
2023-04-20T02:31:28.982Z,100375.34
2023-04-20T02:36:30.821Z,100372.50
2023-04-20T02:41:32.576Z,100373.19
2023-04-20T02:46:33.984Z,100370.03
2023-04-20T02:51:35.489Z,100360.31
2023-04-20T02:56:36.974Z,100362.66
2023-04-20T03:01:38.411Z,100355.47
2023-04-20T03:06:40.474Z,100357.78
2023-04-20T03:11:41.879Z,100357.31
2023-04-20T03:16:43.540Z,100357.19
2023-04-20T03:21:45.548Z,100357.31
2023-04-20T03:26:46.859Z,100360.16
2023-04-20T03:31:48.318Z,100359.44
2023-04-20T03:36:50.096Z,100360.09
2023-04-20T03:41:51.468Z,100355.81
2023-04-20T03:46:52.818Z,100352.09
2023-04-20T03:51:54.133Z,100356.22
2023-04-20T03:56:55.454Z,100349.47
2023-04-20T04:01:57.064Z,100355.47
2023-04-20T04:06:58.558Z,100353.91
2023-04-20T04:11:59.892Z,100345.03
2023-04-20T04:17:01.366Z,100347.81
2023-04-20T04:22:02.700Z,100344.63
2023-04-20T04:27:06.036Z,100348.44
2023-04-20T04:32:07.972Z,100336.03
2023-04-20T04:37:09.314Z,100342.09
2023-04-20T04:42:10.830Z,100339.09
2023-04-20T04:47:12.169Z,100335.38
2023-04-20T04:52:13.570Z,100338.75
2023-04-20T04:57:14.958Z,100336.13
2023-04-20T05:02:16.779Z,100325.25
2023-04-20T05:07:18.423Z,100329.59
2023-04-20T05:12:19.818Z,100333.81
2023-04-20T05:17:21.360Z,100331.25
2023-04-20T05:22:22.771Z,100339.31
2023-04-20T05:27:24.186Z,100338.84
2023-04-20T05:32:25.554Z,100329.53
2023-04-20T05:37:27.416Z,100331.72
2023-04-20T05:42:28.797Z,100332.41
2023-04-20T05:47:30.410Z,100329.06
2023-04-20T05:52:31.785Z,100333.41
2023-04-20T05:57:33.153Z,100334.81
2023-04-20T06:02:34.612Z,100336.00
2023-04-20T06:07:36.599Z,100333.84
2023-04-20T06:12:38.101Z,100340.09
2023-04-20T06:17:40.680Z,100334.31
2023-04-20T06:22:44.459Z,100337.44
2023-04-20T06:27:46.529Z,100331.34
2023-04-20T06:32:47.982Z,100337.22
2023-04-20T06:37:49.685Z,100339.94
2023-04-20T06:42:51.025Z,100339.09
2023-04-20T06:47:52.412Z,100335.44
2023-04-20T06:52:53.872Z,100337.09
2023-04-20T06:57:55.211Z,100336.44
2023-04-20T07:02:57.030Z,100323.69
2023-04-20T07:07:58.423Z,100319.16
2023-04-20T07:12:59.817Z,100317.66
2023-04-20T07:18:01.182Z,100307.09
2023-04-20T07:23:02.664Z,100317.97
2023-04-20T07:28:04.028Z,100322.19
2023-04-20T07:33:05.705Z,100319.84
2023-04-20T07:38:07.135Z,100325.19
2023-04-20T07:43:08.503Z,100332.41
2023-04-20T07:48:09.898Z,100327.22
2023-04-20T07:53:11.243Z,100333.41
2023-04-20T07:58:14.289Z,100334.25
2023-04-20T08:03:15.810Z,100332.34
2023-04-20T08:08:17.856Z,100334.31
2023-04-20T08:13:19.208Z,100334.75
2023-04-20T08:18:21.545Z,100326.09
2023-04-20T08:23:27.689Z,100308.41
2023-04-20T08:28:33.318Z,100303.56
2023-04-20T08:33:35.988Z,100305.59
2023-04-20T08:38:37.419Z,100295.78
2023-04-20T08:43:39.461Z,100287.75
2023-04-20T08:48:41.863Z,100293.13
2023-04-20T08:53:43.316Z,100294.19
2023-04-20T08:58:44.672Z,100281.69
2023-04-20T09:03:46.176Z,100287.06
2023-04-20T09:08:47.576Z,100284.16
2023-04-20T09:14:06.818Z,100279.81
2023-04-20T09:19:09.388Z,100275.31
2023-04-20T09:24:11.282Z,100271.19
2023-04-20T09:29:21.564Z,100261.13
2023-04-20T09:34:23.807Z,100255.59
2023-04-20T09:39:26.699Z,100255.31
2023-04-20T09:44:28.165Z,100243.22
2023-04-20T09:49:30.115Z,100236.75
2023-04-20T09:54:31.679Z,100228.25
2023-04-20T09:59:33.389Z,100229.50
2023-04-20T10:04:34.942Z,100211.66
2023-04-20T10:09:37.707Z,100217.97
2023-04-20T10:14:39.130Z,100196.38
2023-04-20T10:19:42.381Z,100186.25
2023-04-20T10:24:44.070Z,100186.28
2023-04-20T10:29:46.018Z,100180.22
2023-04-20T10:34:47.435Z,100183.09
2023-04-20T10:39:48.835Z,100188.50
2023-04-20T10:44:51.240Z,100171.22
2023-04-20T10:49:52.990Z,100173.88
2023-04-20T10:54:54.361Z,100168.72
2023-04-20T10:59:55.836Z,100154.25
2023-04-20T11:05:01.017Z,100152.63
2023-04-20T11:10:03.960Z,100139.91
2023-04-20T11:15:06.247Z,100146.00
2023-04-20T11:20:13.199Z,100136.00
2023-04-20T11:25:14.606Z,100121.31
2023-04-20T11:30:16.020Z,100125.69
2023-04-20T11:35:17.493Z,100123.06
2023-04-20T11:40:18.863Z,100119.13
2023-04-20T11:45:20.213Z,100117.09
2023-04-20T11:50:22.701Z,100106.47
2023-04-20T11:55:24.038Z,100106.44
2023-04-20T12:00:25.816Z,100105.22
2023-04-20T12:05:28.176Z,100106.09
2023-04-20T12:10:29.601Z,100099.44
2023-04-20T12:15:30.985Z,100094.56
2023-04-20T12:20:32.489Z,100088.63
2023-04-20T12:25:34.269Z,100084.59
2023-04-20T12:30:35.689Z,100072.16
2023-04-20T12:35:37.246Z,100072.53
2023-04-20T12:40:38.728Z,100066.22
2023-04-20T12:45:40.076Z,100054.63
2023-04-20T12:50:42.186Z,100055.81
2023-04-20T12:55:43.593Z,100056.59
2023-04-20T13:00:45.122Z,100056.81
2023-04-20T13:05:46.743Z,100054.88
2023-04-20T13:10:48.265Z,100056.47
2023-04-20T13:15:49.714Z,100074.34
2023-04-20T13:20:51.124Z,100075.03
2023-04-20T13:25:52.577Z,100073.78
2023-04-20T13:30:55.369Z,100093.28
2023-04-20T13:35:56.753Z,100099.56
2023-04-20T13:40:58.087Z,100087.50
2023-04-20T13:45:59.477Z,100085.63
2023-04-20T13:51:00.887Z,100082.31
2023-04-20T13:56:02.359Z,100084.25
2023-04-20T14:01:08.605Z,100103.88
2023-04-20T14:06:10.353Z,100119.00
2023-04-20T14:11:11.742Z,100108.75
2023-04-20T14:16:16.721Z,100092.13
2023-04-20T14:21:18.181Z,100086.91
2023-04-20T14:26:20.486Z,100065.72
2023-04-20T14:31:22.867Z,100071.50
2023-04-20T14:36:24.368Z,100070.22
2023-04-20T14:41:25.762Z,100070.44
2023-04-20T14:46:27.210Z,100072.09
2023-04-20T14:51:28.637Z,100074.00
2023-04-20T14:56:30.048Z,100078.19
2023-04-20T15:01:31.441Z,100078.59
2023-04-20T15:06:34.553Z,100084.00
2023-04-20T15:11:35.957Z,100084.81
2023-04-20T15:16:37.313Z,100093.09
2023-04-20T15:21:38.674Z,100080.81
2023-04-20T15:26:40.156Z,100087.66
2023-04-20T15:31:43.314Z,100077.47
2023-04-20T15:36:44.839Z,100082.41
2023-04-20T15:41:46.282Z,100077.78
2023-04-20T15:46:47.662Z,100082.31
2023-04-20T15:51:49.240Z,100081.06
2023-04-20T15:56:51.049Z,100086.63
2023-04-20T16:01:53.262Z,100081.38
2023-04-20T16:06:55.046Z,100100.00
2023-04-20T16:11:56.436Z,100105.94
2023-04-20T16:17:02.320Z,100111.31
2023-04-20T16:22:03.719Z,100117.06
2023-04-20T16:27:05.394Z,100117.22
2023-04-20T16:32:06.892Z,100120.91
2023-04-20T16:37:08.279Z,100128.31
2023-04-20T16:42:09.836Z,100122.06
2023-04-20T16:47:11.360Z,100114.38
2023-04-20T16:52:13.254Z,100115.19
2023-04-20T16:57:14.951Z,100105.19
2023-04-20T17:02:16.456Z,100106.97
2023-04-20T17:07:17.972Z,100100.06
2023-04-20T17:12:19.360Z,100096.06
2023-04-20T17:17:20.713Z,100102.28
2023-04-20T17:22:22.309Z,100102.22
2023-04-20T17:27:23.667Z,100092.69
2023-04-20T17:32:25.162Z,100102.47
2023-04-20T17:37:26.916Z,100105.34
2023-04-20T17:42:28.256Z,100104.31
2023-04-20T17:47:32.460Z,100110.00
2023-04-20T17:52:34.010Z,100098.13
2023-04-20T17:57:35.583Z,100107.00
2023-04-20T18:02:37.805Z,100113.31
2023-04-20T18:07:39.193Z,100117.88
2023-04-20T18:12:40.535Z,100127.44
2023-04-20T18:17:42.440Z,100130.19
2023-04-20T18:22:43.809Z,100138.09
2023-04-20T18:27:45.768Z,100129.91
2023-04-20T18:32:47.124Z,100117.66
2023-04-20T18:37:48.610Z,100129.03
2023-04-20T18:42:49.947Z,100142.56
2023-04-20T18:47:51.362Z,100155.72
2023-04-20T18:52:52.708Z,100158.66
2023-04-20T18:57:54.051Z,100156.22
2023-04-20T19:02:55.593Z,100169.41
2023-04-20T19:07:57.086Z,100178.91
2023-04-20T19:12:58.421Z,100176.81
2023-04-20T19:17:59.933Z,100166.28
2023-04-20T19:23:01.322Z,100164.19
2023-04-20T19:28:02.824Z,100153.66
2023-04-20T19:33:05.068Z,100161.72
2023-04-20T19:38:06.571Z,100175.63
2023-04-20T19:43:07.881Z,100178.56
2023-04-20T19:48:09.352Z,100172.34
2023-04-20T19:53:10.774Z,100166.16
2023-04-20T19:58:13.299Z,100171.22
2023-04-20T20:03:16.095Z,100172.22
2023-04-20T20:08:17.582Z,100154.66
2023-04-20T20:13:19.043Z,100166.53
2023-04-20T20:18:20.671Z,100166.53
2023-04-20T20:23:22.010Z,100158.69
2023-04-20T20:28:23.370Z,100155.63
2023-04-20T20:33:24.751Z,100147.97
2023-04-20T20:38:26.077Z,100148.44
2023-04-20T20:43:28.436Z,100137.22
2023-04-20T20:48:29.836Z,100136.38
2023-04-20T20:53:31.388Z,100137.38
2023-04-20T20:58:32.734Z,100127.47
2023-04-20T21:03:34.275Z,100118.25
2023-04-20T21:08:36.464Z,100107.34
2023-04-20T21:13:37.806Z,100101.09
2023-04-20T21:18:39.198Z,100113.63
2023-04-20T21:23:40.544Z,100116.69
2023-04-20T21:28:42.200Z,100097.41
2023-04-20T21:33:43.939Z,100127.25
2023-04-20T21:38:45.433Z,100123.19
2023-04-20T21:43:47.057Z,100138.25
2023-04-20T21:48:48.378Z,100146.69
2023-04-20T21:53:49.702Z,100136.63
2023-04-20T21:58:51.025Z,100124.03
2023-04-20T22:03:52.490Z,100074.03
2023-04-20T22:08:54.073Z,100080.94
2023-04-20T22:13:57.170Z,100089.31
2023-04-20T22:18:58.512Z,100094.06
2023-04-20T22:23:59.898Z,100097.38
2023-04-20T22:29:01.428Z,100113.41
2023-04-20T22:34:02.779Z,100108.88
2023-04-20T22:39:04.471Z,100096.25
2023-04-20T22:44:06.145Z,100087.03
2023-04-20T22:49:08.688Z,100083.63
2023-04-20T22:54:10.113Z,100083.47
2023-04-20T22:59:11.440Z,100075.78
2023-04-20T23:04:12.940Z,100075.75
2023-04-20T23:09:20.297Z,100075.69
2023-04-20T23:14:22.453Z,100061.72
2023-04-20T23:19:25.620Z,100063.63
2023-04-20T23:24:26.953Z,100044.09
2023-04-20T23:29:28.292Z,100053.63
2023-04-20T23:34:30.137Z,100054.63
2023-04-20T23:39:36.228Z,100065.44
2023-04-20T23:44:37.546Z,100067.75
2023-04-20T23:49:38.910Z,100055.53
2023-04-20T23:54:40.338Z,100058.69
2023-04-20T23:59:41.852Z,100061.03
